Time;durP1;ratioP1;P1;durP2;ratioP2;P2;SDS_P1;SDS_P2;PMS_P1;PMS_P2;Temp;Humidity;BMP_temperature;BMP_pressure;BME280_temperature;BME280_humidity;BME280_pressure;Samples;Min_cycle;Max_cycle;Signal;HPM_P1;HPM_P2
2021/04/22 00:00:24;;;;;;;8.95;7.65;;;;;;;8.20;70.17;99502.64;1715377;82;21631;-64
2021/04/22 00:02:52;;;;;;;8.65;7.17;;;;;;;8.18;70.05;99501.84;1712168;83;21849;-64
2021/04/22 00:05:29;;;;;;;;;;;;;;;8.14;69.92;99499.78;1716190;82;21209;-63
2021/04/22 00:07:58;;;;;;;10.53;7.62;;;;;;;8.09;69.93;99501.70;1720452;82;22037;-64
2021/04/22 00:10:31;;;;;;;9.50;7.95;;;;;;;8.02;69.84;99502.81;1712001;82;21591;-64
2021/04/22 00:12:59;;;;;;;9.05;8.18;;;;;;;7.98;69.88;99504.68;1723345;82;21674;-65
2021/04/22 00:15:26;;;;;;;10.40;7.90;;;;;;;7.97;69.96;99499.52;1689023;84;21583;-64
2021/04/22 00:17:55;;;;;;;8.65;7.50;;;;;;;7.98;70.31;99506.45;1683528;82;21646;-65
2021/04/22 00:20:24;;;;;;;8.48;7.58;;;;;;;8.05;70.19;99501.88;1675024;83;22046;-63
2021/04/22 00:22:52;;;;;;;8.40;7.05;;;;;;;8.05;70.04;99507.95;1688984;83;21663;-64
2021/04/22 00:25:20;;;;;;;;;;;;;;;8.03;69.98;99508.47;1691493;83;21742;-63
2021/04/22 00:27:48;;;;;;;8.88;7.97;;;;;;;7.98;70.12;99503.84;1689292;83;20493;-62
2021/04/22 00:30:17;;;;;;;8.68;7.78;;;;;;;7.91;70.09;99505.83;1689385;82;21837;-62
2021/04/22 00:32:45;;;;;;;10.88;8.48;;;;;;;7.90;70.01;99506.72;1690130;83;22040;-62
2021/04/22 00:35:15;;;;;;;8.63;7.55;;;;;;;7.85;70.06;99496.00;1685918;83;21676;-62
2021/04/22 00:37:42;;;;;;;11.00;8.18;;;;;;;7.87;70.45;99507.27;1662062;84;21528;-62
2021/04/22 00:40:17;;;;;;;8.48;7.67;;;;;;;7.95;70.40;99510.50;1677592;84;21500;-63
2021/04/22 00:42:44;;;;;;;10.35;8.25;;;;;;;7.90;70.18;99510.64;1677854;83;21591;-62
2021/04/22 00:45:14;;;;;;;10.55;8.40;;;;;;;7.84;70.26;99510.86;1664653;84;22048;-67
2021/04/22 00:47:44;;;;;;;10.13;7.75;;;;;;;7.77;70.26;99516.73;1689867;82;21644;-62
2021/04/22 00:50:23;;;;;;;8.75;7.45;;;;;;;7.72;70.24;99517.37;1689727;82;21961;-62
2021/04/22 00:52:55;;;;;;;8.85;7.58;;;;;;;7.65;70.38;99521.52;1657623;84;21607;-64
2021/04/22 00:55:24;;;;;;;9.40;7.40;;;;;;;7.59;70.38;99524.76;1656740;84;21663;-64
2021/04/22 00:57:51;;;;;;;8.68;6.90;;;;;;;7.62;70.95;99521.64;1657122;85;21599;-64
2021/04/22 01:00:23;;;;;;;7.55;6.85;;;;;;;7.70;70.62;99525.70;1681501;83;21688;-62
2021/04/22 01:02:51;;;;;;;9.83;7.42;;;;;;;7.64;70.53;99521.98;1682659;83;21647;-62
2021/04/22 01:05:23;;;;;;;;;;;;;;;7.58;70.58;99524.80;1691579;83;21575;-61
2021/04/22 01:07:51;;;;;;;9.05;7.60;;;;;;;7.53;70.67;99524.94;1689956;83;20670;-62
2021/04/22 01:10:19;;;;;;;10.72;7.62;;;;;;;7.44;70.70;99523.95;1689300;82;22090;-64
2021/04/22 01:12:47;;;;;;;9.23;7.47;;;;;;;7.38;70.74;99530.66;1680062;83;21659;-60
2021/04/22 01:15:23;;;;;;;9.60;7.90;;;;;;;7.35;71.15;99535.55;1679612;84;21663;-60
2021/04/22 01:17:51;;;;;;;10.18;8.48;;;;;;;7.44;71.08;99535.72;1674158;84;21668;-61
2021/04/22 01:20:23;;;;;;;9.85;7.42;;;;;;;7.38;70.94;99532.84;1676779;84;21619;-61
2021/04/22 01:22:51;;;;;;;8.93;8.00;;;;;;;7.35;71.06;99534.23;1677131;83;22077;-63
2021/04/22 01:25:31;;;;;;;12.82;8.58;;;;;;;7.32;71.06;99542.63;1708597;83;21658;-61
2021/04/22 01:28:00;;;;;;;8.85;7.95;;;;;;;7.28;71.24;99537.94;1708962;82;21640;-63
2021/04/22 01:30:41;;;;;;;8.95;8.03;;;;;;;7.24;71.19;99542.87;1672297;84;21635;-63
2021/04/22 01:33:10;;;;;;;9.35;7.30;;;;;;;7.24;71.69;99544.17;1647108;85;21594;-63
2021/04/22 01:35:40;;;;;;;9.03;8.13;;;;;;;7.34;71.36;99540.82;1709003;82;22131;-63
2021/04/22 01:38:09;;;;;;;10.05;8.38;;;;;;;7.26;71.40;99532.37;1705870;82;21691;-64
2021/04/22 01:40:37;;;;;;;10.30;9.10;;;;;;;7.25;71.44;99538.03;1708920;82;21537;-64
2021/04/22 01:43:05;;;;;;;11.78;9.13;;;;;;;7.21;71.43;99536.41;1707180;82;21576;-64
2021/04/22 01:45:34;;;;;;;10.05;8.60;;;;;;;7.19;71.48;99535.61;1696387;83;21142;-64
2021/04/22 01:48:01;;;;;;;;;;;;;;;7.18;71.46;99537.84;1680274;83;21951;-64
2021/04/22 01:50:30;;;;;;;8.70;7.85;;;;;;;7.20;71.73;99525.56;1669040;83;20590;-64
2021/04/22 01:52:58;;;;;;;9.93;8.90;;;;;;;7.29;71.45;99530.52;1709193;82;21285;-64
2021/04/22 01:55:39;;;;;;;12.50;9.15;;;;;;;7.25;71.46;99527.56;1678115;83;21127;-64
2021/04/22 01:58:08;;;;;;;10.65;9.10;;;;;;;7.21;71.49;99533.38;1676395;84;21702;-64
2021/04/22 02:00:42;;;;;;;10.20;9.08;;;;;;;7.16;71.58;99539.64;1707781;82;21951;-66
2021/04/22 02:03:10;;;;;;;10.70;7.78;;;;;;;7.12;71.57;99541.92;1678977;83;21671;-63
2021/04/22 02:05:40;;;;;;;11.60;8.85;;;;;;;7.05;71.89;99541.27;1712837;82;21600;-63
2021/04/22 02:08:09;;;;;;;10.78;8.73;;;;;;;7.09;72.29;99542.88;1671329;84;21803;-60
2021/04/22 02:10:37;;;;;;;13.30;8.83;;;;;;;7.14;71.97;99544.03;1708587;82;21620;-61
2021/04/22 02:13:05;;;;;;;9.10;8.20;;;;;;;7.10;71.96;99538.50;1701425;83;22081;-63
2021/04/22 02:15:33;;;;;;;9.33;8.30;;;;;;;7.03;72.13;99537.84;1715355;81;21619;-61
2021/04/22 02:18:01;;;;;;;10.58;9.38;;;;;;;7.01;72.17;99538.34;1708680;82;21679;-60
2021/04/22 02:20:29;;;;;;;;;;;;;;;6.96;72.31;99537.16;1712734;82;21572;-60
2021/04/22 02:22:56;;;;;;;;;;;;;;;6.94;72.63;99539.42;1705155;82;20225;-60
2021/04/22 02:25:26;;;;;;;9.90;8.75;;;;;;;7.01;72.63;99544.42;1709977;83;22171;-60
2021/04/22 02:27:54;;;;;;;11.57;8.88;;;;;;;6.99;72.32;99538.84;1706958;82;22079;-60
2021/04/22 02:30:31;;;;;;;12.47;8.58;;;;;;;6.95;72.34;99540.69;1682367;83;21668;-60
2021/04/22 02:33:00;;;;;;;16.13;9.87;;;;;;;6.92;72.38;99537.31;1712438;82;21197;-60
2021/04/22 02:35:30;;;;;;;10.98;8.63;;;;;;;6.86;72.56;99539.66;1676409;83;21699;-60
2021/04/22 02:37:58;;;;;;;12.47;8.83;;;;;;;6.82;72.58;99534.11;1710176;82;21704;-60
2021/04/22 02:40:28;;;;;;;11.88;8.83;;;;;;;6.87;72.90;99537.89;1708629;82;21643;-61
2021/04/22 02:42:57;;;;;;;10.63;9.15;;;;;;;6.93;72.72;99541.19;1674585;83;21625;-61
2021/04/22 02:45:32;;;;;;;11.95;9.23;;;;;;;6.92;72.54;99544.69;1682755;83;21568;-61
2021/04/22 02:48:01;;;;;;;10.40;8.83;;;;;;;6.86;72.61;99539.66;1706599;82;21213;-61
2021/04/22 02:50:31;;;;;;;;;;;;;;;6.80;72.73;99537.22;1714667;82;21900;-63
2021/04/22 02:52:59;;;;;;;10.43;8.03;;;;;;;6.73;72.95;99543.52;1708676;83;20562;-61
2021/04/22 02:55:27;;;;;;;9.55;8.23;;;;;;;6.69;73.07;99540.59;1679509;84;21693;-61
2021/04/22 02:57:56;;;;;;;10.60;8.20;;;;;;;6.79;73.28;99543.34;1675313;83;21715;-62
2021/04/22 03:00:24;;;;;;;11.65;9.18;;;;;;;6.79;73.08;99549.88;1682409;83;21493;-59
2021/04/22 03:02:52;;;;;;;;;;;;;;;6.72;73.10;99547.87;1713306;82;21501;-63
2021/04/22 03:05:19;;;;;;;;;;;;;;;6.69;73.29;99550.59;1719159;81;20650;-62
2021/04/22 03:07:47;;;;;;;10.40;8.75;;;;;;;6.62;73.32;99556.42;1708595;82;20575;-62
2021/04/22 03:10:17;;;;;;;11.78;8.28;;;;;;;6.59;73.27;99555.65;1676903;83;21497;-62
2021/04/22 03:12:45;;;;;;;11.53;8.50;;;;;;;6.63;73.71;99569.06;1706814;83;21551;-62
2021/04/22 03:15:13;;;;;;;11.33;8.78;;;;;;;6.72;73.48;99570.08;1710893;82;22072;-62
2021/04/22 03:17:42;;;;;;;10.20;9.08;;;;;;;6.69;73.35;99571.95;1676473;83;21704;-62
2021/04/22 03:20:11;;;;;;;10.05;9.05;;;;;;;6.63;73.39;99569.91;1704449;83;21620;-62
2021/04/22 03:22:39;;;;;;;14.10;9.23;;;;;;;6.60;73.49;99566.52;1704627;82;21682;-63
2021/04/22 03:25:09;;;;;;;10.10;8.58;;;;;;;6.60;73.53;99569.13;1700064;83;27706;-63
2021/04/22 03:27:36;;;;;;;15.23;9.55;;;;;;;6.63;73.95;99571.22;1677546;83;22069;-63
2021/04/22 03:30:07;;;;;;;10.80;9.48;;;;;;;6.72;73.61;99575.77;1678301;83;21711;-63
2021/04/22 03:32:35;;;;;;;11.55;8.83;;;;;;;6.68;73.54;99574.14;1679008;83;21146;-63
2021/04/22 03:35:05;;;;;;;14.35;9.45;;;;;;;6.66;73.65;99578.55;1711611;82;21572;-62
2021/04/22 03:37:33;;;;;;;11.70;9.63;;;;;;;6.64;73.56;99583.81;1708094;82;21572;-64
2021/04/22 03:40:01;;;;;;;10.55;9.55;;;;;;;6.56;73.65;99577.96;1679259;83;22171;-61
2021/04/22 03:42:51;;;;;;;13.40;9.38;;;;;;;6.66;73.92;99583.33;1707434;83;21604;-63
2021/04/22 03:45:20;;;;;;;12.37;9.10;;;;;;;6.76;73.80;99584.80;1646078;85;21664;-64
2021/04/22 03:47:49;;;;;;;10.82;9.13;;;;;;;6.78;73.61;99585.61;1644130;86;21684;-65
2021/04/22 03:50:18;;;;;;;10.88;9.78;;;;;;;6.79;73.46;99588.61;1645387;85;21657;-65
2021/04/22 03:52:46;;;;;;;12.53;9.73;;;;;;;6.79;73.50;99592.98;1645355;86;22023;-62
2021/04/22 03:55:15;;;;;;;10.60;8.98;;;;;;;6.79;73.44;99593.84;1644826;86;21189;-63
2021/04/22 03:57:43;;;;;;;10.93;9.05;;;;;;;6.87;73.83;99592.31;1645014;86;21624;-61
2021/04/22 04:00:15;;;;;;;10.32;9.05;;;;;;;7.00;73.51;99594.98;1646533;85;21834;-61
2021/04/22 04:02:42;;;;;;;11.83;9.58;;;;;;;7.01;73.35;99601.94;1634463;85;21624;-61
2021/04/22 04:05:11;;;;;;;10.50;9.40;;;;;;;7.01;73.35;99604.55;1640901;85;22156;-61
2021/04/22 04:07:39;;;;;;;14.87;9.70;;;;;;;7.07;73.38;99601.36;1638603;86;21545;-61
2021/04/22 04:10:08;;;;;;;10.25;9.10;;;;;;;7.15;73.20;99610.67;1644610;86;21682;-61
2021/04/22 04:12:36;;;;;;;10.28;9.23;;;;;;;7.27;73.41;99609.48;1644442;85;21592;-61
2021/04/22 04:15:06;;;;;;;10.13;9.10;;;;;;;7.43;72.97;99612.94;1645126;85;21710;-62
2021/04/22 04:17:33;;;;;;;11.53;9.45;;;;;;;7.47;72.61;99615.86;1641245;86;22059;-64
2021/04/22 04:20:05;;;;;;;13.50;9.30;;;;;;;7.55;72.35;99618.66;1643246;85;21708;-62
2021/04/22 04:22:33;;;;;;;11.38;9.50;;;;;;;7.54;72.27;99620.00;1646056;85;21683;-63
2021/04/22 04:25:01;;;;;;;10.30;9.40;;;;;;;7.54;72.29;99620.00;1644637;85;21618;-63
2021/04/22 04:27:29;;;;;;;;;;;;;;;7.57;72.38;99621.20;1651189;85;21613;-61
2021/04/22 04:29:56;;;;;;;11.90;9.75;;;;;;;7.67;72.00;99625.72;1644738;85;23164;-64
2021/04/22 04:32:25;;;;;;;12.10;9.38;;;;;;;7.63;71.76;99634.11;1645499;85;21536;-62
2021/04/22 04:34:54;;;;;;;10.95;9.73;;;;;;;7.60;71.60;99632.89;1644243;85;21740;-62
2021/04/22 04:37:22;;;;;;;11.78;10.30;;;;;;;7.55;71.62;99630.42;1645198;86;27401;-58
